createdAt,value
2019-01-08T00:00:05.201Z,94.00
2019-01-08T00:02:34.883Z,94.00
2019-01-08T00:05:04.408Z,93.60
2019-01-08T00:07:33.875Z,93.70
2019-01-08T00:10:03.451Z,93.50
2019-01-08T00:12:32.874Z,93.30
2019-01-08T00:15:02.411Z,93.10
2019-01-08T00:17:32.030Z,93.20
2019-01-08T00:20:01.385Z,93.00
2019-01-08T00:22:30.913Z,92.90
2019-01-08T00:25:00.176Z,92.90
2019-01-08T00:27:29.594Z,92.50
2019-01-08T00:29:58.978Z,92.30
2019-01-08T00:32:28.321Z,92.30
2019-01-08T00:34:57.817Z,92.40
2019-01-08T00:37:27.230Z,92.40
2019-01-08T00:39:56.792Z,92.20
2019-01-08T00:42:26.204Z,92.30
2019-01-08T00:44:55.630Z,92.80
2019-01-08T00:47:24.973Z,92.40
2019-01-08T00:49:54.355Z,92.50
2019-01-08T00:52:23.689Z,92.60
2019-01-08T00:54:53.175Z,92.50
2019-01-08T00:57:22.698Z,92.70
2019-01-08T00:59:52.117Z,93.00
2019-01-08T01:02:21.801Z,92.50
2019-01-08T01:04:51.417Z,91.50
2019-01-08T01:07:20.883Z,91.40
2019-01-08T01:09:50.393Z,91.60
2019-01-08T01:12:20.050Z,91.80
2019-01-08T01:14:49.598Z,92.10
2019-01-08T01:17:19.131Z,92.10
2019-01-08T01:19:48.428Z,92.20
2019-01-08T01:22:17.950Z,92.30
2019-01-08T01:24:47.217Z,92.40
2019-01-08T01:27:16.652Z,92.50
2019-01-08T01:29:45.995Z,92.50
2019-01-08T01:32:15.356Z,92.70
2019-01-08T01:34:44.817Z,92.80
2019-01-08T01:37:14.434Z,92.80
2019-01-08T01:39:43.828Z,92.80
2019-01-08T01:42:13.095Z,92.50
2019-01-08T01:44:42.447Z,92.60
2019-01-08T01:47:17.870Z,92.30
2019-01-08T01:49:47.258Z,91.80
2019-01-08T01:52:16.545Z,91.90
2019-01-08T01:54:46.089Z,91.90
2019-01-08T01:57:16.854Z,92.00
2019-01-08T01:59:46.246Z,92.00
2019-01-08T02:02:15.646Z,91.70
2019-01-08T02:04:45.266Z,91.80
2019-01-08T02:07:15.082Z,91.80
2019-01-08T02:09:44.424Z,91.50
2019-01-08T02:12:14.057Z,91.60
2019-01-08T02:14:43.430Z,91.60
2019-01-08T02:17:12.828Z,91.70
2019-01-08T02:19:42.294Z,91.50
2019-01-08T02:22:11.609Z,91.50
2019-01-08T02:24:41.066Z,91.30
2019-01-08T02:27:10.317Z,91.40
2019-01-08T02:29:39.740Z,90.80
2019-01-08T02:32:09.198Z,91.00
2019-01-08T02:34:38.490Z,90.90
2019-01-08T02:37:07.926Z,91.10
2019-01-08T02:39:37.323Z,91.10
2019-01-08T02:42:06.602Z,90.90
2019-01-08T02:44:36.043Z,91.10
2019-01-08T02:47:05.684Z,91.20
2019-01-08T02:49:35.057Z,91.40
2019-01-08T02:52:04.437Z,91.40
2019-01-08T02:54:33.801Z,91.40
2019-01-08T02:57:03.305Z,91.40
2019-01-08T02:59:32.607Z,91.40
2019-01-08T03:02:01.989Z,91.60
2019-01-08T03:04:31.375Z,91.60
2019-01-08T03:07:00.832Z,91.50
2019-01-08T03:09:31.794Z,91.40
2019-01-08T03:12:01.118Z,91.70
2019-01-08T03:14:30.482Z,91.50
2019-01-08T03:16:59.988Z,91.20
2019-01-08T03:19:29.261Z,91.20
2019-01-08T03:21:58.679Z,90.90
2019-01-08T03:24:28.005Z,91.00
2019-01-08T03:26:57.324Z,91.10
2019-01-08T03:29:33.519Z,91.20
2019-01-08T03:31:57.830Z,91.10
2019-01-08T03:34:27.114Z,91.00
2019-01-08T03:36:56.524Z,90.80
2019-01-08T03:39:25.844Z,90.90
2019-01-08T03:41:55.443Z,90.50
2019-01-08T03:44:24.791Z,90.70
2019-01-08T03:46:54.137Z,90.50
2019-01-08T03:49:23.509Z,89.90
2019-01-08T03:51:52.834Z,89.90
2019-01-08T03:54:22.134Z,89.90
2019-01-08T03:56:51.619Z,89.90
2019-01-08T03:59:20.967Z,89.90
2019-01-08T04:01:50.344Z,89.00
2019-01-08T04:04:19.769Z,89.40
2019-01-08T04:06:49.218Z,88.50
2019-01-08T04:09:18.686Z,88.50
2019-01-08T04:11:48.085Z,88.70
2019-01-08T04:14:17.574Z,88.70
2019-01-08T04:16:46.985Z,88.30
2019-01-08T04:19:16.366Z,89.00
2019-01-08T04:21:45.875Z,88.40
2019-01-08T04:24:15.327Z,88.50
2019-01-08T04:26:44.694Z,88.50
2019-01-08T04:29:14.163Z,88.40
2019-01-08T04:31:43.546Z,88.60
2019-01-08T04:34:12.921Z,88.80
2019-01-08T04:36:42.335Z,88.60
2019-01-08T04:39:11.836Z,88.70
2019-01-08T04:41:41.252Z,88.80
2019-01-08T04:44:10.603Z,88.50
2019-01-08T04:46:39.954Z,88.60
2019-01-08T04:49:09.306Z,88.70
2019-01-08T04:51:38.737Z,88.80
2019-01-08T04:54:08.194Z,88.80
2019-01-08T04:56:37.660Z,88.60
2019-01-08T04:59:07.052Z,89.60
2019-01-08T05:01:36.410Z,89.00
2019-01-08T05:04:05.690Z,88.50
2019-01-08T05:06:35.145Z,89.10
2019-01-08T05:09:05.470Z,88.50
2019-01-08T05:11:34.975Z,88.70
2019-01-08T05:14:04.328Z,88.00
2019-01-08T05:16:33.651Z,88.00
2019-01-08T05:19:02.946Z,87.70
2019-01-08T05:21:32.294Z,88.20
2019-01-08T05:24:01.712Z,87.70
2019-01-08T05:26:31.302Z,87.80
2019-01-08T05:29:01.095Z,87.40
2019-01-08T05:31:30.424Z,88.20
2019-01-08T05:33:59.951Z,87.40
2019-01-08T05:36:29.398Z,87.90
2019-01-08T05:38:58.960Z,87.10
2019-01-08T05:41:28.378Z,87.00
2019-01-08T05:43:57.985Z,87.20
2019-01-08T05:46:27.355Z,88.00
2019-01-08T05:48:56.681Z,85.60
2019-01-08T05:51:26.269Z,85.80
2019-01-08T05:53:55.762Z,85.80
2019-01-08T05:56:25.314Z,86.10
2019-01-08T05:58:54.727Z,86.30
2019-01-08T06:01:24.081Z,87.80
2019-01-08T06:03:53.931Z,87.00
2019-01-08T06:06:23.496Z,86.70
2019-01-08T06:08:53.237Z,87.70
2019-01-08T06:11:22.723Z,88.80
2019-01-08T06:13:52.139Z,90.10
2019-01-08T06:16:21.454Z,90.60
2019-01-08T06:18:50.825Z,91.10
2019-01-08T06:21:20.189Z,91.50
2019-01-08T06:23:49.718Z,91.70
2019-01-08T06:26:19.187Z,91.60
2019-01-08T06:28:48.736Z,91.70
2019-01-08T06:31:18.111Z,91.70
2019-01-08T06:33:47.502Z,91.50
2019-01-08T06:36:16.900Z,91.50
2019-01-08T06:38:46.162Z,91.70
2019-01-08T06:41:15.555Z,91.50
2019-01-08T06:43:44.958Z,91.50
2019-01-08T06:46:14.478Z,91.50
2019-01-08T06:48:43.799Z,91.50
2019-01-08T06:51:13.199Z,91.60
2019-01-08T06:53:42.592Z,91.60
2019-01-08T06:56:12.125Z,91.70
2019-01-08T06:58:41.641Z,91.60
2019-01-08T07:01:10.979Z,91.30
2019-01-08T07:03:40.509Z,91.70
2019-01-08T07:06:09.861Z,91.70
2019-01-08T07:08:39.237Z,91.90
2019-01-08T07:11:08.585Z,91.80
2019-01-08T07:13:38.017Z,91.80
2019-01-08T07:16:07.388Z,91.50
2019-01-08T07:18:36.743Z,91.40
2019-01-08T07:21:06.207Z,91.50
2019-01-08T07:23:35.522Z,91.00
2019-01-08T07:26:04.849Z,91.60
2019-01-08T07:28:34.234Z,91.40
2019-01-08T07:31:03.830Z,91.00
2019-01-08T07:33:33.181Z,90.70
2019-01-08T07:36:02.611Z,90.80
2019-01-08T07:38:31.974Z,90.80
2019-01-08T07:41:01.625Z,90.70
2019-01-08T07:43:31.067Z,90.60
2019-01-08T07:46:00.535Z,90.50
2019-01-08T07:48:30.015Z,90.30
2019-01-08T07:50:59.359Z,90.40
2019-01-08T07:53:28.749Z,90.20
2019-01-08T07:55:58.149Z,90.10
2019-01-08T07:58:27.511Z,89.80
2019-01-08T08:00:56.909Z,89.80
2019-01-08T08:03:26.336Z,90.00
2019-01-08T08:05:55.765Z,89.10
2019-01-08T08:08:25.829Z,88.40
2019-01-08T08:10:55.350Z,89.10
2019-01-08T08:13:24.785Z,89.10
2019-01-08T08:15:54.333Z,88.40
2019-01-08T08:18:24.153Z,89.00
2019-01-08T08:20:53.749Z,88.80
2019-01-08T08:23:23.231Z,88.70
2019-01-08T08:25:52.775Z,88.30
2019-01-08T08:28:22.182Z,88.30
2019-01-08T08:30:58.635Z,87.30
2019-01-08T08:33:22.712Z,87.50
2019-01-08T08:35:52.086Z,87.80
2019-01-08T08:38:21.403Z,87.90
2019-01-08T08:40:50.857Z,88.30
2019-01-08T08:43:20.207Z,87.50
2019-01-08T08:45:49.656Z,87.90
2019-01-08T08:48:19.034Z,87.80
2019-01-08T08:50:48.398Z,87.90
2019-01-08T08:53:17.891Z,88.20
2019-01-08T08:55:47.235Z,88.00
2019-01-08T08:58:16.587Z,88.70
2019-01-08T09:00:46.160Z,89.10
2019-01-08T09:03:15.661Z,89.00
2019-01-08T09:05:45.051Z,89.60
2019-01-08T09:08:14.644Z,90.00
2019-01-08T09:10:44.168Z,90.20
2019-01-08T09:13:13.746Z,90.20
2019-01-08T09:15:43.313Z,90.40
2019-01-08T09:18:12.615Z,90.20
2019-01-08T09:20:42.141Z,90.80
2019-01-08T09:23:11.593Z,90.50
2019-01-08T09:25:40.980Z,90.60
2019-01-08T09:28:10.421Z,90.80
2019-01-08T09:30:39.937Z,90.60
2019-01-08T09:33:09.295Z,90.70
2019-01-08T09:35:38.764Z,90.80
2019-01-08T09:38:08.210Z,90.80
2019-01-08T09:40:37.587Z,91.10
2019-01-08T09:43:06.990Z,91.30
2019-01-08T09:45:36.317Z,91.40
2019-01-08T09:48:05.717Z,91.50
2019-01-08T09:50:34.960Z,91.30
2019-01-08T09:53:04.318Z,91.60
2019-01-08T09:55:33.880Z,92.00
2019-01-08T09:58:03.330Z,91.60
2019-01-08T10:00:32.713Z,91.80
2019-01-08T10:03:02.146Z,91.90
2019-01-08T10:05:31.566Z,92.00
2019-01-08T10:08:00.999Z,92.00
2019-01-08T10:10:30.400Z,92.50
2019-01-08T10:12:59.785Z,92.30
2019-01-08T10:15:29.206Z,92.30
2019-01-08T10:17:58.565Z,92.60
2019-01-08T10:20:27.992Z,92.80
2019-01-08T10:22:57.650Z,92.80
2019-01-08T10:25:27.051Z,92.80
2019-01-08T10:27:56.434Z,93.00
2019-01-08T10:30:25.776Z,93.00
2019-01-08T10:32:55.167Z,93.10
2019-01-08T10:35:25.042Z,93.20
2019-01-08T10:37:54.442Z,92.90
2019-01-08T10:40:23.851Z,92.80
2019-01-08T10:42:53.291Z,92.70
2019-01-08T10:45:22.990Z,92.60
2019-01-08T10:47:52.513Z,92.50
2019-01-08T10:50:21.874Z,92.60
2019-01-08T10:52:51.275Z,92.20
2019-01-08T10:55:20.702Z,92.30
2019-01-08T10:57:50.587Z,92.20
2019-01-08T11:00:20.148Z,92.20
2019-01-08T11:02:49.593Z,92.40
2019-01-08T11:05:18.981Z,92.50
2019-01-08T11:07:49.394Z,92.50
2019-01-08T11:10:18.785Z,92.70
2019-01-08T11:12:48.146Z,92.70
2019-01-08T11:15:17.613Z,92.70
2019-01-08T11:17:47.219Z,92.60
2019-01-08T11:20:16.847Z,92.70
2019-01-08T11:22:46.147Z,92.80
2019-01-08T11:25:15.917Z,92.70
2019-01-08T11:27:45.297Z,92.70
2019-01-08T11:30:14.807Z,92.80
2019-01-08T11:32:44.267Z,92.90
2019-01-08T11:35:13.610Z,93.00
2019-01-08T11:37:43.049Z,93.00
2019-01-08T11:40:12.480Z,92.60
2019-01-08T11:42:41.863Z,92.90
2019-01-08T11:45:11.434Z,92.80
2019-01-08T11:47:41.009Z,92.70
2019-01-08T11:50:10.473Z,92.70
2019-01-08T11:52:39.909Z,92.10
2019-01-08T11:55:09.325Z,92.00
2019-01-08T11:57:38.796Z,92.10
2019-01-08T12:00:18.484Z,92.10
2019-01-08T12:02:48.163Z,91.20
2019-01-08T12:05:17.658Z,92.00
2019-01-08T12:07:47.059Z,92.20
2019-01-08T12:10:16.419Z,92.20
2019-01-08T12:12:45.825Z,92.50
2019-01-08T12:15:15.193Z,91.50
2019-01-08T12:17:44.661Z,91.30
2019-01-08T12:20:14.532Z,91.10
2019-01-08T12:22:43.999Z,91.30
2019-01-08T12:25:13.521Z,91.20
2019-01-08T12:27:43.007Z,91.30
2019-01-08T12:30:12.505Z,91.20
2019-01-08T12:32:42.932Z,91.20
2019-01-08T12:35:12.547Z,91.10
2019-01-08T12:37:42.206Z,91.10
2019-01-08T12:40:11.749Z,91.00
2019-01-08T12:42:41.154Z,91.10
2019-01-08T12:45:10.843Z,91.30
2019-01-08T12:47:40.249Z,90.80
2019-01-08T12:50:09.897Z,90.70
2019-01-08T12:52:39.289Z,90.90
2019-01-08T12:55:08.765Z,90.90
2019-01-08T12:57:38.347Z,90.70
2019-01-08T13:00:09.384Z,91.00
2019-01-08T13:02:38.826Z,90.90
2019-01-08T13:05:08.340Z,90.70
2019-01-08T13:07:37.783Z,90.20
2019-01-08T13:10:07.417Z,90.30
2019-01-08T13:12:36.906Z,90.20
2019-01-08T13:15:06.538Z,90.20
2019-01-08T13:17:35.944Z,90.30
2019-01-08T13:20:05.870Z,90.00
2019-01-08T13:22:35.175Z,89.90
2019-01-08T13:25:04.648Z,88.50
2019-01-08T13:27:34.146Z,88.60
2019-01-08T13:30:03.741Z,87.50
2019-01-08T13:32:33.123Z,87.20
2019-01-08T13:35:02.566Z,86.30
2019-01-08T13:37:32.019Z,87.10
2019-01-08T13:40:01.422Z,87.00
2019-01-08T13:42:31.012Z,86.80
2019-01-08T13:45:00.666Z,86.50
2019-01-08T13:47:30.382Z,87.80
2019-01-08T13:49:59.882Z,87.80
2019-01-08T13:52:29.439Z,88.70
2019-01-08T13:55:01.062Z,88.10
2019-01-08T13:57:30.028Z,88.40
2019-01-08T13:59:59.392Z,88.80
2019-01-08T14:02:32.023Z,89.10
2019-01-08T14:05:01.481Z,89.80
2019-01-08T14:07:30.989Z,90.10
2019-01-08T14:10:00.586Z,90.20
2019-01-08T14:12:30.922Z,90.00
2019-01-08T14:15:00.464Z,89.10
2019-01-08T14:17:29.929Z,90.10
2019-01-08T14:19:59.481Z,90.10
2019-01-08T14:22:28.935Z,90.40
2019-01-08T14:24:58.596Z,90.80
2019-01-08T14:27:28.097Z,90.70
2019-01-08T14:29:57.582Z,91.10
2019-01-08T14:32:27.369Z,91.40
2019-01-08T14:34:56.958Z,91.30
2019-01-08T14:37:26.543Z,91.80
2019-01-08T14:39:56.565Z,91.60
2019-01-08T14:42:26.264Z,91.40
2019-01-08T14:44:55.787Z,91.20
2019-01-08T14:47:25.221Z,91.20
2019-01-08T14:49:54.900Z,91.10
2019-01-08T14:52:24.429Z,91.30
2019-01-08T14:54:53.985Z,91.30
2019-01-08T14:57:23.457Z,90.90
2019-01-08T14:59:53.078Z,91.00
2019-01-08T15:02:22.642Z,91.00
2019-01-08T15:04:52.014Z,91.10
2019-01-08T15:07:21.625Z,90.80
2019-01-08T15:09:51.095Z,90.90
2019-01-08T15:12:20.773Z,90.90
2019-01-08T15:14:50.258Z,91.10
2019-01-08T15:17:19.750Z,91.10
2019-01-08T15:19:49.477Z,91.10
2019-01-08T15:22:19.019Z,90.70
2019-01-08T15:24:48.782Z,90.40
2019-01-08T15:27:18.298Z,90.60
2019-01-08T15:29:47.874Z,90.60
2019-01-08T15:32:18.723Z,90.60
2019-01-08T15:34:48.141Z,90.70
2019-01-08T15:37:17.558Z,90.80
2019-01-08T15:39:47.182Z,90.90
2019-01-08T15:42:16.682Z,91.20
2019-01-08T15:44:46.504Z,91.40
2019-01-08T15:47:15.939Z,91.30
2019-01-08T15:49:45.522Z,91.40
2019-01-08T15:52:15.187Z,91.50
2019-01-08T15:54:44.821Z,91.30
2019-01-08T15:57:14.439Z,91.50
2019-01-08T15:59:44.114Z,91.30
2019-01-08T16:02:13.774Z,90.90
2019-01-08T16:04:43.331Z,90.70
2019-01-08T16:07:14.220Z,90.70
2019-01-08T16:09:43.682Z,90.40
2019-01-08T16:12:13.135Z,90.70
2019-01-08T16:14:42.681Z,90.20
2019-01-08T16:17:12.273Z,90.20
2019-01-08T16:19:41.782Z,90.10
2019-01-08T16:22:11.265Z,90.00
2019-01-08T16:24:40.725Z,90.30
2019-01-08T16:27:10.289Z,89.80
2019-01-08T16:29:39.882Z,90.00
2019-01-08T16:32:09.577Z,90.40
2019-01-08T16:34:39.011Z,90.00
2019-01-08T16:37:08.640Z,90.00
2019-01-08T16:39:38.252Z,90.50
2019-01-08T16:42:07.701Z,90.70
2019-01-08T16:44:37.499Z,90.50
2019-01-08T16:47:07.732Z,90.60
2019-01-08T16:49:37.381Z,90.70
2019-01-08T16:52:06.852Z,90.90
2019-01-08T16:54:36.319Z,90.90
2019-01-08T16:57:05.929Z,90.90
2019-01-08T16:59:35.613Z,91.20
2019-01-08T17:02:05.285Z,91.70
2019-01-08T17:04:35.097Z,91.80
2019-01-08T17:07:04.840Z,92.00
2019-01-08T17:09:34.522Z,92.00
2019-01-08T17:12:04.434Z,91.90
2019-01-08T17:14:33.977Z,91.50
2019-01-08T17:17:03.637Z,91.50
2019-01-08T17:19:33.233Z,91.30
2019-01-08T17:22:03.036Z,91.30
2019-01-08T17:24:32.790Z,91.30
2019-01-08T17:27:02.451Z,91.40
2019-01-08T17:29:32.079Z,91.20
2019-01-08T17:32:01.824Z,91.00
2019-01-08T17:34:31.648Z,91.10
2019-01-08T17:37:01.332Z,90.70
2019-01-08T17:39:30.886Z,90.70
2019-01-08T17:42:00.443Z,90.90
2019-01-08T17:44:30.017Z,91.00
2019-01-08T17:46:59.782Z,91.40
2019-01-08T17:49:29.489Z,90.70
2019-01-08T17:51:59.348Z,92.00
2019-01-08T17:54:29.182Z,93.20
2019-01-08T17:56:58.883Z,93.60
2019-01-08T17:59:28.675Z,93.90
2019-01-08T18:02:08.064Z,93.90
2019-01-08T18:04:37.643Z,94.00
2019-01-08T18:07:07.228Z,94.10
2019-01-08T18:09:37.034Z,94.00
2019-01-08T18:12:06.861Z,94.30
2019-01-08T18:14:36.937Z,94.30
2019-01-08T18:17:06.818Z,94.30
2019-01-08T18:19:36.288Z,94.20
2019-01-08T18:22:06.307Z,94.30
2019-01-08T18:24:35.993Z,94.20
2019-01-08T18:27:05.803Z,94.10
2019-01-08T18:29:36.458Z,94.20
2019-01-08T18:32:07.205Z,93.60
2019-01-08T18:34:37.173Z,93.30
2019-01-08T18:37:06.709Z,92.80
2019-01-08T18:39:36.297Z,93.00
2019-01-08T18:42:06.072Z,93.40
2019-01-08T18:44:36.152Z,92.80
2019-01-08T18:47:06.029Z,92.90
2019-01-08T18:49:35.660Z,92.90
2019-01-08T18:52:05.448Z,92.90
2019-01-08T18:54:35.013Z,92.60
2019-01-08T18:57:04.895Z,92.90
2019-01-08T18:59:34.733Z,92.40
2019-01-08T19:02:04.387Z,92.40
2019-01-08T19:04:34.230Z,92.40
2019-01-08T19:07:03.915Z,92.10
2019-01-08T19:09:35.837Z,92.40
2019-01-08T19:12:07.095Z,92.30
2019-01-08T19:14:43.357Z,92.30
2019-01-08T19:17:13.526Z,92.50
2019-01-08T19:19:43.265Z,92.40
2019-01-08T19:22:13.199Z,92.80
2019-01-08T19:24:42.932Z,92.60
2019-01-08T19:27:12.646Z,92.50
2019-01-08T19:29:42.481Z,92.60
2019-01-08T19:32:12.333Z,92.60
2019-01-08T19:34:41.940Z,92.60
2019-01-08T19:37:11.719Z,92.40
2019-01-08T19:39:41.334Z,92.10
2019-01-08T19:42:11.018Z,92.20
2019-01-08T19:44:40.838Z,91.90
2019-01-08T19:47:10.736Z,91.40
2019-01-08T19:49:42.678Z,91.70
2019-01-08T19:52:12.302Z,91.80
2019-01-08T19:54:42.064Z,92.10
2019-01-08T19:57:11.841Z,92.20
2019-01-08T19:59:41.758Z,92.30
2019-01-08T20:02:11.660Z,92.30
2019-01-08T20:04:41.672Z,92.30
2019-01-08T20:07:11.495Z,92.20
2019-01-08T20:09:41.526Z,91.90
2019-01-08T20:12:11.534Z,91.90
2019-01-08T20:14:41.720Z,91.70
2019-01-08T20:17:11.709Z,91.60
2019-01-08T20:19:41.599Z,91.50
2019-01-08T20:22:11.620Z,91.70
2019-01-08T20:24:41.701Z,91.40
2019-01-08T20:27:11.604Z,91.40
2019-01-08T20:29:41.389Z,91.60
2019-01-08T20:32:11.226Z,91.20
2019-01-08T20:34:41.219Z,91.60
2019-01-08T20:37:10.968Z,91.70
2019-01-08T20:39:40.773Z,91.80
2019-01-08T20:42:10.512Z,91.80
2019-01-08T20:44:40.182Z,91.90
2019-01-08T20:47:09.919Z,92.00
2019-01-08T20:49:39.831Z,92.10
2019-01-08T20:52:09.473Z,92.40
2019-01-08T20:54:39.034Z,92.30
2019-01-08T20:57:09.393Z,92.30
2019-01-08T20:59:39.382Z,92.60
2019-01-08T21:02:09.317Z,92.40
2019-01-08T21:04:39.077Z,92.60
2019-01-08T21:07:08.666Z,92.60
2019-01-08T21:09:38.333Z,92.50
2019-01-08T21:12:08.263Z,92.40
2019-01-08T21:14:38.113Z,92.50
2019-01-08T21:17:08.017Z,92.10
2019-01-08T21:19:37.816Z,92.20
2019-01-08T21:22:09.617Z,92.10
2019-01-08T21:24:39.203Z,92.10
2019-01-08T21:27:08.851Z,91.80
2019-01-08T21:29:38.640Z,91.90
2019-01-08T21:32:08.488Z,91.80
2019-01-08T21:34:44.215Z,91.50
2019-01-08T21:37:09.782Z,91.70
2019-01-08T21:39:39.473Z,91.40
2019-01-08T21:42:09.106Z,91.30
2019-01-08T21:44:38.691Z,91.30
2019-01-08T21:47:08.328Z,91.40
2019-01-08T21:49:37.868Z,91.30
2019-01-08T21:52:07.689Z,91.60
2019-01-08T21:54:37.362Z,91.80
2019-01-08T21:57:06.959Z,92.10
2019-01-08T21:59:36.559Z,92.30
2019-01-08T22:02:07.081Z,92.30
2019-01-08T22:04:36.598Z,92.50
2019-01-08T22:07:06.086Z,92.40
2019-01-08T22:09:35.832Z,92.50
2019-01-08T22:12:05.469Z,92.40
2019-01-08T22:14:35.026Z,92.40
2019-01-08T22:17:04.714Z,92.10
2019-01-08T22:19:34.243Z,92.30
2019-01-08T22:22:03.920Z,92.20
2019-01-08T22:24:33.467Z,92.10
2019-01-08T22:27:02.935Z,92.10
2019-01-08T22:29:32.467Z,92.10
2019-01-08T22:32:02.198Z,92.30
2019-01-08T22:34:31.732Z,92.40
2019-01-08T22:37:01.290Z,92.50
2019-01-08T22:39:30.878Z,92.50
2019-01-08T22:42:00.368Z,92.40
2019-01-08T22:44:30.361Z,92.40
2019-01-08T22:46:59.768Z,92.20
2019-01-08T22:49:29.201Z,92.40
2019-01-08T22:51:58.883Z,92.20
2019-01-08T22:54:28.741Z,92.20
2019-01-08T22:56:58.527Z,92.20
2019-01-08T22:59:27.941Z,92.30
2019-01-08T23:01:57.317Z,92.30
2019-01-08T23:04:26.784Z,92.60
2019-01-08T23:06:56.266Z,92.50
2019-01-08T23:09:25.931Z,92.90
2019-01-08T23:11:55.443Z,93.10
2019-01-08T23:14:24.822Z,93.30
2019-01-08T23:16:54.214Z,93.30
2019-01-08T23:19:32.774Z,93.40
2019-01-08T23:22:02.266Z,92.70
2019-01-08T23:24:31.668Z,92.80
2019-01-08T23:27:01.017Z,93.20
2019-01-08T23:29:30.453Z,93.30
2019-01-08T23:31:59.878Z,93.30
2019-01-08T23:34:29.279Z,93.40
2019-01-08T23:36:58.622Z,93.30
2019-01-08T23:39:28.059Z,93.10
2019-01-08T23:41:57.753Z,93.30
2019-01-08T23:44:27.086Z,93.10
2019-01-08T23:46:56.674Z,92.90
2019-01-08T23:49:26.094Z,92.50
2019-01-08T23:52:04.385Z,92.70
2019-01-08T23:54:35.744Z,92.40
2019-01-08T23:57:05.407Z,92.40
2019-01-08T23:59:34.782Z,92.40
